Cover City, Nevada
Current Conditions -  °F | °C
As of 11:55 AM on Friday 19 Dec 2014 (Local Time) from KENV Reporting Station
Clear Clear  
Wind Chill: -1°   Ceiling: Unl
Heat Index:   Visibility: 10mi
Dew Point: -3°   Wind: 6mph
Humidity: 70%   Direction: 80°E
Pressure: 30.14"   Gusts: NA
Location:  41.0114°N, 114.57°W
Report Text: KENV 191955Z AUTO 08005KT 10SM CLR 02/M03 A3014 RMK AO1
Loading
Personal Weather Stations






























Interactive Weather Map New forecast layout! Learn more

10-Day Weather Forecast

Advertisements
Track Severe Weather on mobile